Letecké školy

Flying Academy USA

Flying Academy USA

Miami, Florida        Aktuální teplota 29 °C

Flying Academy ČR

Flying Academy ČR

Praha & Brno, Česká Republika        Aktuální teplota 25 °C

Letecká škola Flying Academy

Letecká škola Flying Academy má více než 12 let zkušeností s výcvikem profesionálních pilotů v Evropě a přes 30 let v USA. Jsme jednou z nejdynamičtěji rostoucích leteckých škol poskytujících vysoký standard leteckého výcviku v prostředí simulujícím atmosféru v aeroliniích.

  • Flying Academy je EASA certifikovaná výcviková organizace (CZ/ATO-014) a FAA certifikovaná letecká škola podle Part 141 & 61, působíme v České Republice a v USA
  • Naši instruktoři jsou současně i piloty aerolinií – získáte reálné zkušenosti pilota
  • Dostanete zdarma iPad mini při zahájení ab-initio výcvikového programu
  • Naše výcvikové kurzy jsou navrženy pro budoucí EASA a FAA soukromé a komerční piloty

Vítejte ve světě, kde práce je náš koníček! Každý v našem týmu ve Flying Academy se těší z úspěchů našich studentů. Diky skvělému zázemí, přístupu a nabídce naší letecké školy se ujistíte, že jste na správném místě k dosažení Vašich snů ve Flying Academy.

Proč si vybrat Flying Academy - přečtěte si více >>

 

Novinky

Time building v Miami za neskutečnou cenu 82$ / hodinu

Time building je základem pro všechny studenty aspirující na profesionální piloty. Hlavně pro mladé studenty, kteří chtějí budovat kariéru v aerolinkách, je velice důležité mít nalétaný dostatek hodin a tím získat potřebné zkušenosti pro pozici komerčního pilota. 

Z tohoto důvodu se letecká škola Flying Academy rozhodla podpořit právě tyto mladé profesionály speciální cenou za Time building v Miami, která začíná na 82$ za hodinu pronájmu Cessny 152. Veškeré palivo je v ceně, v USA navíc neplatíte přistávací ani komunikační poplatky. Další výhodou je, že počasí v Miami je přímo předurčené k létání po celý rok. 

Naši profesionální letečtí instruktoři Vám rádi pomohou s přizpůsobením se jinému vzdušnému prostoru a místním regulacím, poradí s naplánováním cesty a dají Vám všechny potřebné rady, které potřebujete vědět při létání Time buildingu v Miami. Čtěte více.

celý článek >>

Flying Academy pořádá Videosoutěž roku! Vyhrát můžete 25.000 Kč

Víme, že jste nadšenci do létání a že pilotní výcvik berete jako cestu ke splnění Vašich snů. Nyní je čas ukázat Vaše nadšení z výcviku celému světu!

Natočte krátké video z Vašeho leteckého tréninku, odpovězte na otázku "Proč se chci stát pilotem" a vyhrajte 25.000 Kč. Může se jednat o některý z Vašich Time building letů nebo o naučné video ohledně pilotního výcviku v naší letecké škole. Nápadům se meze nekladou.

Každý účastník naší video soutěže může přihlásit neomezený počet videí. Ta budou zveřejněna na Youtube kanálu letecké školy Flying Academy. O vítězi rozhodne nejvyšší počet Like u videa na Youtube účtu Flying Academy. Soutěž skončí 30. listopadu 2016.

Podmínky soutěže:

  • Účastník soutěže musí být současným či bývalým studentem letecké školy Flying Academy.
  • Během natáčení videa musí student používat letadla a vybavení letecké školy Flying Academy.
  • Video musí být alespoň 1 minutu dlouhé.

Při natáčení videa prosím dbejde na to, že musí být dodržena všechna bezpečnostní opatření. Video bude připuštěno do soutěže pouze v případě, že nebude v rozporu s danými bezpečnostními pravidly.

Čtěte dále a zjistěte, jak se přihlásit do soutěže.

celý článek >>

Obohaťte si výcvik 0-ATPL o zkušenosti v USA

Letecká škola Flying Academy nabízí svým studentům možnost nalétat část výcviku 0-ATPL v nové pobočce v Miami. Získáte tak cenné zkušenosti jak z evropského, tak i amerického prostředí. Na Floridě uděláte PPL kurz včetně 100 hodin celkového náletu, naučíte se ICAO angličtinu přímo od rodilých mluvčích a získáte zkušenosti ze zahlceného vzdušného prostoru. Zbytek výcviku pokračuje v České republice, kde Vám pomůžeme s validací průkazu PPL z FAA na EASA, uděláte ATPL teorii a výcviky IR, MEP a CPL.

Ještě před odletem do USA Vám pomůžeme s vyřízením vízových dokumentů, bydlení Vám můžeme zajistit ve vile Flying Academy vzdálené zhruba pět minut od letiště a po příletu do Miami na Vás budeme čekat na letišti. Stejné služby Vám zdarma poskytneme i v další části výcviku v České republice. Zajistíme Vám jednoduše all inclusive servis.

Pro více informací nás kontaktujte ZDE

celý článek >>

více článků

Blog

Time Building v Miami je jednoduché řešení, jak zlepšit Vaše letecké dovednosti

Student letecké školy Flying Academy Milan ze Slovenska právě přijel ze základny v Miami, kde létal Time building. Na Floridě strávil 28 dní a nalétal 75 hodin. Výcvik pro něj byl nejenom skvělou zkušeností, co se týče leteckého výcviku, ale také ideálním místem pro rodinnou dovolenou. "Spolu s mojí ženou jsme navštívili Naples, Stuart, Tampu, NASA vesmírné středisko, Universal studios v Orlandu a mnoho dalších turistických míst podél pobřeží. Je velice fajn létat podél pobřeží Floridy jako turista," popisuje zážitky Milan. 

Čtěte jeho zážitky z FIoridy ZDE

pokračovat ve čtení >>

více článků

Flying Academy s.r.o.
Beranových 130
Praha 9 - Letnany
199 00

800 884 888

+420 228 882 444

www.flyingacademy.cz
pilot@FlyingAcademy.cz

facebook.com/FlyingAcademy
twitter.com/FlyingAcademy
youtube.com/FlyingAcademy

Aktuální počasí

LKTB

LKTB 311500Z 20011KT 170V230 9999 FEW040CB 24/14 Q1009 NOSIG

LKPR

LKPR 311500Z 27006KT 9999 FEW010 SCT033 17/14 Q1010 NOSIG

LKKV

LKKV 311519Z 26009KT 220V280 9000 SHRA VCTS SCT040CB 19/12 Q1010 RMK REG QNH 1006

KTMB

KTMB 311453Z 27003KT 10SM FEW030 BKN075 28/21 A2997 RMK AO2 SLP148 T02830211 50007

Začněte program 0-500 a získejte 500 letových hodin s Flying Academy Získejte více informací